createdAt,value
2018-09-12T12:17:35.491Z,30.03
2018-09-12T12:18:35.462Z,29.94
2018-09-12T12:19:35.455Z,29.74
2018-09-12T12:20:35.442Z,29.78
2018-09-12T12:21:35.443Z,29.91
2018-09-12T12:22:35.721Z,30.01
2018-09-12T12:23:35.420Z,30.25
2018-09-12T12:24:35.397Z,29.76
2018-09-12T12:25:35.398Z,29.78
2018-09-12T12:26:35.376Z,29.88
2018-09-12T12:27:35.522Z,29.92
2018-09-12T12:28:35.360Z,29.99
2018-09-12T12:29:35.646Z,29.97
2018-09-12T12:30:35.335Z,30.10
2018-09-12T12:31:35.330Z,30.06
2018-09-12T12:32:35.353Z,30.08
2018-09-12T12:33:35.307Z,30.10
2018-09-12T12:34:35.293Z,30.10
2018-09-12T12:35:35.590Z,30.26
2018-09-12T12:36:35.277Z,30.37
2018-09-12T12:37:35.493Z,30.45
2018-09-12T12:38:35.254Z,30.45
2018-09-12T12:39:35.248Z,30.44
2018-09-12T12:40:35.229Z,30.64
2018-09-12T12:41:35.220Z,30.45
2018-09-12T12:42:35.324Z,30.36
2018-09-12T12:43:35.198Z,30.66
2018-09-12T12:44:35.507Z,30.81
2018-09-12T12:45:35.181Z,30.56
2018-09-12T12:46:35.169Z,30.64
2018-09-12T12:47:56.171Z,30.54
2018-09-12T12:48:35.500Z,30.53
2018-09-12T12:49:35.141Z,30.57
2018-09-12T12:50:35.645Z,30.48
2018-09-12T12:51:35.293Z,30.49
2018-09-12T12:52:35.611Z,30.26
2018-09-12T12:53:35.564Z,30.19
2018-09-12T12:54:35.094Z,30.36
2018-09-12T12:55:35.337Z,30.57
2018-09-12T12:56:35.476Z,30.66
2018-09-12T12:57:56.544Z,30.63
2018-09-12T12:58:35.047Z,30.72
2018-09-12T12:59:35.032Z,30.79
2018-09-12T13:00:35.509Z,30.85
2018-09-12T13:01:35.321Z,30.68
2018-09-12T13:02:35.957Z,30.60
2018-09-12T13:03:34.999Z,30.53
2018-09-12T13:04:35.062Z,30.51
2018-09-12T13:05:34.982Z,30.56
2018-09-12T13:06:34.958Z,30.61
2018-09-12T13:07:35.091Z,30.64
2018-09-12T13:08:34.941Z,30.70
2018-09-12T13:09:34.928Z,30.86
2018-09-12T13:10:34.971Z,31.03
2018-09-12T13:11:34.918Z,31.12
2018-09-12T13:12:55.899Z,30.96
2018-09-12T13:13:34.890Z,31.13
2018-09-12T13:14:34.923Z,30.94
2018-09-12T13:15:34.868Z,31.20
2018-09-12T13:16:34.857Z,31.23
2018-09-12T13:17:35.079Z,31.12
2018-09-12T13:18:34.837Z,30.97
2018-09-12T13:19:34.829Z,30.96
2018-09-12T13:20:34.818Z,30.86
2018-09-12T13:21:34.888Z,30.60
2018-09-12T13:22:34.891Z,30.67
2018-09-12T13:23:34.789Z,30.38
2018-09-12T13:24:34.779Z,30.37
2018-09-12T13:25:34.772Z,30.66
2018-09-12T13:26:34.758Z,30.83
2018-09-12T13:27:35.055Z,30.90
2018-09-12T13:28:34.735Z,30.81
2018-09-12T13:29:34.729Z,30.75
2018-09-12T13:30:34.717Z,30.70
2018-09-12T13:31:35.588Z,30.60
2018-09-12T13:32:55.700Z,30.75
2018-09-12T13:33:34.690Z,30.90
2018-09-12T13:34:34.972Z,30.83
2018-09-12T13:35:34.671Z,30.70
2018-09-12T13:36:35.887Z,30.70
2018-09-12T13:37:55.650Z,31.01
2018-09-12T13:38:34.939Z,31.16
2018-09-12T13:39:34.626Z,30.96
2018-09-12T13:40:34.622Z,30.86
2018-09-12T13:41:34.913Z,30.73
2018-09-12T13:42:34.830Z,30.68
2018-09-12T13:43:35.134Z,30.54
2018-09-12T13:44:35.119Z,30.54
2018-09-12T13:45:35.322Z,30.53
2018-09-12T13:46:35.102Z,30.30
2018-09-12T13:47:34.971Z,30.49
2018-09-12T13:48:34.834Z,30.66
2018-09-12T13:49:35.380Z,30.73
2018-09-12T13:50:34.719Z,30.91
2018-09-12T13:51:34.806Z,30.97
2018-09-12T13:52:55.498Z,31.00
2018-09-12T13:53:35.093Z,30.78
2018-09-12T13:54:35.093Z,30.94
2018-09-12T13:55:34.761Z,31.03
2018-09-12T13:56:35.148Z,30.94
2018-09-12T13:57:34.630Z,30.93
2018-09-12T13:58:35.091Z,31.00
2018-09-12T13:59:35.100Z,30.93
2018-09-12T14:00:35.091Z,30.90
2018-09-12T14:01:34.546Z,30.63
2018-09-12T14:02:34.463Z,30.42
2018-09-12T14:03:34.373Z,30.45
2018-09-12T14:04:34.419Z,30.51
2018-09-12T14:05:34.476Z,30.64
2018-09-12T14:06:34.645Z,30.56
2018-09-12T14:07:34.605Z,30.51
2018-09-12T14:08:34.405Z,30.45
2018-09-12T14:09:34.618Z,30.44
2018-09-12T14:10:34.386Z,30.51
2018-09-12T14:11:34.287Z,30.79
2018-09-12T14:12:34.442Z,30.82
2018-09-12T14:13:35.066Z,30.82
2018-09-12T14:14:35.065Z,30.72
2018-09-12T14:15:34.557Z,30.73
2018-09-12T14:16:34.548Z,30.72
2018-09-12T14:17:34.264Z,30.70
2018-09-12T14:18:34.531Z,30.42
2018-09-12T14:19:35.158Z,30.54
2018-09-12T14:20:35.068Z,30.44
2018-09-12T14:21:35.073Z,30.49
2018-09-12T14:22:34.455Z,30.54
2018-09-12T14:23:35.067Z,30.67
2018-09-12T14:24:35.069Z,30.68
2018-09-12T14:25:35.068Z,30.37
2018-09-12T14:26:35.165Z,30.56
2018-09-12T14:27:35.464Z,30.60
2018-09-12T14:28:35.068Z,30.63
2018-09-12T14:29:35.069Z,30.66
2018-09-12T14:30:34.404Z,30.75
2018-09-12T14:31:35.068Z,30.88
2018-09-12T14:32:34.663Z,30.37
2018-09-12T14:33:34.570Z,30.36
2018-09-12T14:34:34.569Z,30.51
2018-09-12T14:35:34.569Z,30.56
2018-09-12T14:36:34.577Z,30.72
2018-09-12T14:37:34.202Z,30.67
2018-09-12T14:38:34.570Z,30.70
2018-09-12T14:39:34.638Z,30.83
2018-09-12T14:40:34.006Z,30.51
2018-09-12T14:41:33.992Z,30.53
2018-09-12T14:42:34.032Z,30.59
2018-09-12T14:43:33.956Z,30.63
2018-09-12T14:44:33.946Z,30.73
2018-09-12T14:45:33.951Z,30.72
2018-09-12T14:46:34.572Z,30.73
2018-09-12T14:47:34.175Z,30.82
2018-09-12T14:48:33.905Z,30.82
2018-09-12T14:49:33.895Z,30.97
2018-09-12T14:50:33.887Z,30.94
2018-09-12T14:51:33.874Z,30.86
2018-09-12T14:52:34.008Z,30.94
2018-09-12T14:53:33.854Z,31.03
2018-09-12T14:54:33.843Z,30.79
2018-09-12T14:55:33.832Z,30.86
2018-09-12T14:56:33.821Z,30.88
2018-09-12T14:57:34.219Z,30.72
2018-09-12T14:58:33.804Z,30.61
2018-09-12T14:59:33.791Z,30.67
2018-09-12T15:00:33.781Z,30.86
2018-09-12T15:01:33.770Z,30.75
2018-09-12T15:02:33.970Z,30.75
2018-09-12T15:03:33.752Z,30.91
2018-09-12T15:04:33.743Z,30.81
2018-09-12T15:05:33.779Z,31.03
2018-09-12T15:06:33.719Z,31.09
2018-09-12T15:07:33.802Z,31.35
2018-09-12T15:08:33.702Z,31.41
2018-09-12T15:09:33.690Z,31.49
2018-09-12T15:10:33.782Z,31.53
2018-09-12T15:11:33.674Z,31.69
2018-09-12T15:12:33.940Z,31.68
2018-09-12T15:13:33.648Z,31.74
2018-09-12T15:14:33.638Z,31.85
2018-09-12T15:15:33.634Z,31.74
2018-09-12T15:16:33.621Z,31.67
2018-09-12T15:17:33.605Z,31.74
2018-09-12T15:18:33.679Z,31.79
2018-09-12T15:19:33.587Z,31.94
2018-09-12T15:20:33.576Z,32.03
2018-09-12T15:21:33.568Z,32.28
2018-09-12T15:22:34.079Z,32.68
2018-09-12T15:23:33.814Z,32.63
2018-09-12T15:24:33.538Z,32.77
2018-09-12T15:25:33.527Z,32.36
2018-09-12T15:26:33.844Z,31.97
2018-09-12T15:27:33.507Z,32.22
2018-09-12T15:28:34.566Z,32.27
2018-09-12T15:29:33.489Z,31.99
2018-09-12T15:30:33.478Z,32.05
2018-09-12T15:31:33.469Z,31.98
2018-09-12T15:32:33.525Z,32.07
2018-09-12T15:33:33.784Z,32.34
2018-09-12T15:34:33.439Z,32.28
2018-09-12T15:35:33.428Z,32.17
2018-09-12T15:36:33.419Z,32.47
2018-09-12T15:37:33.409Z,32.46
2018-09-12T15:38:33.616Z,32.68
2018-09-12T15:39:33.389Z,32.65
2018-09-12T15:40:33.379Z,32.72
2018-09-12T15:41:33.454Z,32.62
2018-09-12T15:42:33.358Z,32.78
2018-09-12T15:43:33.446Z,32.84
2018-09-12T15:44:33.339Z,32.68
2018-09-12T15:45:33.330Z,32.50
2018-09-12T15:46:33.326Z,32.51
2018-09-12T15:47:33.313Z,32.25
2018-09-12T15:48:33.587Z,32.36
2018-09-12T15:49:33.290Z,32.34
2018-09-12T15:50:33.279Z,32.59
2018-09-12T15:51:33.274Z,32.84
2018-09-12T15:52:33.262Z,33.09
2018-09-12T15:53:33.414Z,33.06
2018-09-12T15:54:34.080Z,33.00
2018-09-12T15:55:33.229Z,32.91
2018-09-12T15:56:33.221Z,33.14
2018-09-12T15:57:33.212Z,33.06
2018-09-12T15:58:33.258Z,32.90
2018-09-12T15:59:33.193Z,33.17
2018-09-12T16:00:33.188Z,33.21
2018-09-12T16:01:33.171Z,32.95
2018-09-12T16:02:33.159Z,33.09
2018-09-12T16:03:33.391Z,33.11
2018-09-12T16:04:33.140Z,32.66
2018-09-12T16:05:33.132Z,32.76
2018-09-12T16:06:33.121Z,33.02
2018-09-12T16:07:33.111Z,33.05
2018-09-12T16:08:33.216Z,32.93
2018-09-12T16:09:33.092Z,32.71
2018-09-12T16:10:33.080Z,32.71
2018-09-12T16:11:33.076Z,32.63
2018-09-12T16:12:33.060Z,32.25
2018-09-12T16:13:33.354Z,31.92
2018-09-12T16:14:33.041Z,32.05
2018-09-12T16:15:33.088Z,32.03
2018-09-12T16:16:33.022Z,32.22
2018-09-12T16:17:33.014Z,32.29
2018-09-12T16:18:33.194Z,32.27
2018-09-12T16:19:32.993Z,32.56
2018-09-12T16:20:32.982Z,32.29
2018-09-12T16:21:32.974Z,31.85
2018-09-12T16:22:32.965Z,31.76
2018-09-12T16:23:33.016Z,31.75
2018-09-12T16:24:32.943Z,32.02
2018-09-12T16:25:32.953Z,31.97
2018-09-12T16:26:32.924Z,31.67
2018-09-12T16:27:32.916Z,31.30
2018-09-12T16:28:33.155Z,31.53
2018-09-12T16:29:32.893Z,31.65
2018-09-12T16:30:32.886Z,31.64
2018-09-12T16:31:32.874Z,31.76
2018-09-12T16:32:32.868Z,31.90
2018-09-12T16:33:32.991Z,32.02
2018-09-12T16:34:32.844Z,31.95
2018-09-12T16:35:32.831Z,32.02
2018-09-12T16:36:32.824Z,31.57
2018-09-12T16:37:32.817Z,31.69
2018-09-12T16:38:33.131Z,31.65
2018-09-12T16:39:32.796Z,31.54
2018-09-12T16:40:32.783Z,31.41
2018-09-12T16:41:32.774Z,30.94
2018-09-12T16:42:33.589Z,30.90
2018-09-12T16:43:32.957Z,30.88
2018-09-12T16:44:32.744Z,30.90
2018-09-12T16:45:32.732Z,30.93
2018-09-12T16:46:32.725Z,30.72
2018-09-12T16:47:32.714Z,30.68
2018-09-12T16:48:32.791Z,30.81
2018-09-12T16:49:32.698Z,30.90
2018-09-12T16:50:32.688Z,30.72
2018-09-12T16:51:32.732Z,30.59
2018-09-12T16:52:32.663Z,30.40
2018-09-12T16:53:32.652Z,30.53
2018-09-12T16:54:34.981Z,30.25
2018-09-12T16:55:32.633Z,29.92
2018-09-12T16:56:32.754Z,29.76
2018-09-12T16:57:32.614Z,29.94
2018-09-12T16:58:32.601Z,29.85
2018-09-12T16:59:32.661Z,29.81
2018-09-12T17:00:32.749Z,29.91
2018-09-12T17:01:33.097Z,29.69
2018-09-12T17:02:32.573Z,29.45
2018-09-12T17:03:32.878Z,29.47
2018-09-12T17:04:32.800Z,29.36
2018-09-12T17:05:32.531Z,29.33
2018-09-12T17:06:33.138Z,29.26
2018-09-12T17:07:32.507Z,29.23
2018-09-12T17:08:32.501Z,29.10
2018-09-12T17:09:32.630Z,29.07
2018-09-12T17:10:32.837Z,28.91
2018-09-12T17:11:32.796Z,28.88
2018-09-12T17:12:32.457Z,28.87
2018-09-12T17:13:32.446Z,28.61
2018-09-12T17:14:32.797Z,28.38
2018-09-12T17:15:32.424Z,28.40
2018-09-12T17:16:32.744Z,28.36
2018-09-12T17:17:32.405Z,28.35
2018-09-12T17:18:32.398Z,28.27
2018-09-12T17:19:32.693Z,28.27
2018-09-12T17:20:32.379Z,28.20
2018-09-12T17:21:32.694Z,28.11
2018-09-12T17:22:32.354Z,28.01
2018-09-12T17:23:32.346Z,27.98
2018-09-12T17:24:32.711Z,27.83
2018-09-12T17:25:32.325Z,27.78
2018-09-12T17:26:33.097Z,27.61
2018-09-12T17:27:33.107Z,27.58
2018-09-12T17:28:32.293Z,27.50
2018-09-12T17:29:32.659Z,27.31
2018-09-12T17:30:32.270Z,27.27
2018-09-12T17:31:33.100Z,27.12
2018-09-12T17:32:32.709Z,27.08
2018-09-12T17:33:32.239Z,27.02
2018-09-12T17:34:32.464Z,27.01
2018-09-12T17:35:32.218Z,26.87
2018-09-12T17:36:32.208Z,26.86
2018-09-12T17:37:33.149Z,26.72
2018-09-12T17:38:32.191Z,26.56
2018-09-12T17:39:32.564Z,26.41
2018-09-12T17:40:32.164Z,26.35
2018-09-12T17:41:32.154Z,26.23
2018-09-12T17:42:32.168Z,26.17
2018-09-12T17:43:32.133Z,26.20
2018-09-12T17:44:32.130Z,26.16
2018-09-12T17:45:32.401Z,26.11
2018-09-12T17:46:32.103Z,25.97
2018-09-12T17:47:32.098Z,25.79
2018-09-12T17:48:32.081Z,25.72
2018-09-12T17:49:32.069Z,25.63
2018-09-12T17:50:32.469Z,25.59
2018-09-12T17:51:32.055Z,25.51
2018-09-12T17:52:32.366Z,25.41
2018-09-12T17:53:32.027Z,25.41
2018-09-12T17:54:32.019Z,25.29
2018-09-12T17:55:32.297Z,25.30
2018-09-12T17:56:32.007Z,25.22
2018-09-12T17:57:31.989Z,25.16
2018-09-12T17:58:32.001Z,25.08
2018-09-12T17:59:31.970Z,25.01
2018-09-12T18:00:32.117Z,24.84
2018-09-12T18:01:31.947Z,24.83
2018-09-12T18:02:32.290Z,24.74
2018-09-12T18:03:32.287Z,24.66
2018-09-12T18:04:31.916Z,24.59
2018-09-12T18:05:32.321Z,24.60
2018-09-12T18:06:31.886Z,24.36
2018-09-12T18:07:31.880Z,24.34
2018-09-12T18:08:31.909Z,24.37
2018-09-12T18:09:31.864Z,24.30
2018-09-12T18:10:32.179Z,24.21
2018-09-12T18:11:31.835Z,24.14
2018-09-12T18:12:31.822Z,24.12
2018-09-12T18:13:31.814Z,24.02
2018-09-12T18:14:31.801Z,24.04
2018-09-12T18:15:32.633Z,23.96
2018-09-12T18:16:32.151Z,23.96
2018-09-12T18:17:31.818Z,23.92
2018-09-12T18:18:32.132Z,23.82
2018-09-12T18:19:31.749Z,23.75
2018-09-12T18:20:32.011Z,23.75
2018-09-12T18:21:32.103Z,23.67
2018-09-12T18:22:31.725Z,23.59
2018-09-12T18:23:32.641Z,23.56
2018-09-12T18:24:31.720Z,23.53
2018-09-12T18:25:31.842Z,23.47
2018-09-12T18:26:31.734Z,23.45
2018-09-12T18:27:31.693Z,23.35
2018-09-12T18:28:31.658Z,23.39
2018-09-12T18:29:31.644Z,23.45
2018-09-12T18:30:32.045Z,23.37
2018-09-12T18:31:31.675Z,23.35
2018-09-12T18:32:31.666Z,23.29
2018-09-12T18:33:31.605Z,23.19
2018-09-12T18:34:31.597Z,23.31
2018-09-12T18:35:31.810Z,23.23
2018-09-12T18:36:31.588Z,23.21
2018-09-12T18:37:31.567Z,23.19
2018-09-12T18:38:31.576Z,23.18
2018-09-12T18:39:32.185Z,22.97
2018-09-12T18:40:31.948Z,23.01
2018-09-12T18:41:31.541Z,22.94
2018-09-12T18:42:31.516Z,22.88
2018-09-12T18:43:31.499Z,22.84
2018-09-12T18:44:31.514Z,22.94
2018-09-12T18:45:31.780Z,22.76
2018-09-12T18:46:31.513Z,22.79
2018-09-12T18:47:31.514Z,22.69
2018-09-12T18:48:31.447Z,22.79
2018-09-12T18:49:31.443Z,22.70
2018-09-12T18:50:31.610Z,22.60
2018-09-12T18:51:31.414Z,22.67
2018-09-12T18:52:31.403Z,22.61
2018-09-12T18:53:31.422Z,22.51
2018-09-12T18:54:31.382Z,22.41
2018-09-12T18:55:31.442Z,22.38
2018-09-12T18:56:31.367Z,22.35
2018-09-12T18:57:31.350Z,22.36
2018-09-12T18:58:31.362Z,22.27
2018-09-12T18:59:31.332Z,22.36
2018-09-12T19:00:31.677Z,22.26
2018-09-12T19:01:31.309Z,22.27
2018-09-12T19:02:31.306Z,22.26
2018-09-12T19:03:31.287Z,22.21
2018-09-12T19:04:31.276Z,22.20
2018-09-12T19:05:31.417Z,22.23
2018-09-12T19:06:31.324Z,22.19
2018-09-12T19:07:31.250Z,22.19
2018-09-12T19:08:32.206Z,22.12
2018-09-12T19:09:31.225Z,22.15
2018-09-12T19:10:32.471Z,22.19
2018-09-12T19:11:31.220Z,22.05
2018-09-12T19:12:31.190Z,22.12
2018-09-12T19:13:31.185Z,22.17
2018-09-12T19:14:31.170Z,22.12
2018-09-12T19:15:31.384Z,22.12
2018-09-12T19:16:31.148Z,22.12
2018-09-12T19:17:31.138Z,21.91
2018-09-12T19:18:31.182Z,21.90
2018-09-12T19:19:31.119Z,21.93
2018-09-12T19:20:32.111Z,21.90
2018-09-12T19:21:31.096Z,21.86
2018-09-12T19:22:31.090Z,21.86
2018-09-12T19:23:31.075Z,21.89
2018-09-12T19:24:31.069Z,21.74
2018-09-12T19:25:31.355Z,21.66
2018-09-12T19:26:31.120Z,21.68
2018-09-12T19:27:31.031Z,21.66
2018-09-12T19:28:31.026Z,21.53
2018-09-12T19:29:31.011Z,21.52
2018-09-12T19:30:31.488Z,21.49
2018-09-12T19:31:30.992Z,21.51
2018-09-12T19:32:30.977Z,21.45
2018-09-12T19:33:30.970Z,21.48
2018-09-12T19:34:30.956Z,21.45
2018-09-12T19:35:31.019Z,21.46
2018-09-12T19:36:30.939Z,21.46
2018-09-12T19:37:30.923Z,21.38
2018-09-12T19:38:30.913Z,21.49
2018-09-12T19:39:30.903Z,21.48
2018-09-12T19:40:31.155Z,21.46
2018-09-12T19:41:30.884Z,21.40
2018-09-12T19:42:30.878Z,21.36
2018-09-12T19:43:30.860Z,21.49
2018-09-12T19:44:30.848Z,21.49
2018-09-12T19:45:30.998Z,21.58
2018-09-12T19:46:30.829Z,21.55
2018-09-12T19:47:30.817Z,21.53
2018-09-12T19:48:30.807Z,21.58
2018-09-12T19:49:30.796Z,21.43
2018-09-12T19:50:32.121Z,21.38
2018-09-12T19:51:30.836Z,21.43
2018-09-12T19:52:31.967Z,21.43
2018-09-12T19:53:30.753Z,21.28
2018-09-12T19:54:30.743Z,21.38
2018-09-12T19:55:30.953Z,21.34
2018-09-12T19:56:30.720Z,21.34
2018-09-12T19:57:30.728Z,21.22
2018-09-12T19:58:30.718Z,21.18
2018-09-12T19:59:30.851Z,21.22
2018-09-12T20:00:30.843Z,21.31
2018-09-12T20:01:30.667Z,21.36
2018-09-12T20:02:30.657Z,21.21
2018-09-12T20:03:30.646Z,21.26
2018-09-12T20:04:30.636Z,21.24
2018-09-12T20:05:30.924Z,21.27
2018-09-12T20:06:30.612Z,21.33
2018-09-12T20:07:30.745Z,21.36
2018-09-12T20:08:30.593Z,21.31
2018-09-12T20:09:30.583Z,21.18
2018-09-12T20:10:31.682Z,21.03
2018-09-12T20:11:30.560Z,21.15
2018-09-12T20:12:30.548Z,21.09
2018-09-12T20:13:30.542Z,20.98
2018-09-12T20:14:30.527Z,21.06
2018-09-12T20:15:30.608Z,20.93
2018-09-12T20:16:30.505Z,20.87
2018-09-12T20:17:30.504Z,20.96
2018-09-12T20:18:30.482Z,20.94
2018-09-12T20:19:30.483Z,20.83
2018-09-12T20:20:31.647Z,20.82
2018-09-12T20:21:30.506Z,20.82
2018-09-12T20:22:30.441Z,20.71
2018-09-12T20:23:30.544Z,20.60
2018-09-12T20:24:30.485Z,20.71
2018-09-12T20:25:30.557Z,20.71
2018-09-12T20:26:30.397Z,20.69
2018-09-12T20:27:30.395Z,20.51
2018-09-12T20:28:30.379Z,20.38
2018-09-12T20:29:30.366Z,20.25
2018-09-12T20:30:30.356Z,20.35
2018-09-12T20:31:30.595Z,20.37
2018-09-12T20:32:30.403Z,20.31
2018-09-12T20:33:30.344Z,20.31
2018-09-12T20:34:30.312Z,20.27
2018-09-12T20:35:30.342Z,20.27
2018-09-12T20:36:30.425Z,20.19
2018-09-12T20:37:30.333Z,20.22
2018-09-12T20:38:30.272Z,20.16
2018-09-12T20:39:30.259Z,20.17
2018-09-12T20:40:30.247Z,20.17
2018-09-12T20:41:30.563Z,20.15
2018-09-12T20:42:30.229Z,20.16
2018-09-12T20:43:30.216Z,20.19
2018-09-12T20:44:30.206Z,20.19
2018-09-12T20:45:30.233Z,20.13
2018-09-12T20:46:30.393Z,20.23
2018-09-12T20:47:30.174Z,20.23
2018-09-12T20:48:30.172Z,20.19
2018-09-12T20:49:30.155Z,20.34
2018-09-12T20:50:30.198Z,20.34
2018-09-12T20:51:30.225Z,20.34
2018-09-12T20:52:30.123Z,20.22
2018-09-12T20:53:30.115Z,20.17
2018-09-12T20:54:30.098Z,20.13
2018-09-12T20:55:30.089Z,20.02
2018-09-12T20:56:30.365Z,20.04
2018-09-12T20:57:30.065Z,20.05
2018-09-12T20:58:30.054Z,19.97
2018-09-12T20:59:30.051Z,19.85
2018-09-12T21:00:30.034Z,19.79
2018-09-12T21:01:30.206Z,19.85
2018-09-12T21:02:30.012Z,19.80
2018-09-12T21:03:30.001Z,19.86
2018-09-12T21:04:29.989Z,19.92
2018-09-12T21:05:29.984Z,19.97
2018-09-12T21:06:30.026Z,19.95
2018-09-12T21:07:29.959Z,19.95
2018-09-12T21:08:29.948Z,19.94
2018-09-12T21:09:29.937Z,19.97
2018-09-12T21:10:29.926Z,19.95
2018-09-12T21:11:30.164Z,19.97
2018-09-12T21:12:29.904Z,19.90
2018-09-12T21:13:29.893Z,19.83
2018-09-12T21:14:29.883Z,19.83
2018-09-12T21:15:29.874Z,19.79
2018-09-12T21:16:29.996Z,19.70
2018-09-12T21:17:29.850Z,19.64
2018-09-12T21:18:29.846Z,19.64
2018-09-12T21:19:29.829Z,19.65
2018-09-12T21:20:29.823Z,19.71
2018-09-12T21:21:30.137Z,19.68
2018-09-12T21:22:29.797Z,19.70
2018-09-12T21:23:29.787Z,19.65
2018-09-12T21:24:29.777Z,19.49
2018-09-12T21:25:29.764Z,19.57
2018-09-12T21:26:29.973Z,19.50
2018-09-12T21:27:29.742Z,19.55
2018-09-12T21:28:29.730Z,19.53
2018-09-12T21:29:29.721Z,19.52
2018-09-12T21:30:29.718Z,19.64
2018-09-12T21:31:29.797Z,19.53
2018-09-12T21:32:29.688Z,19.50
2018-09-12T21:33:29.676Z,19.52
2018-09-12T21:34:29.665Z,19.50
2018-09-12T21:35:29.654Z,19.60
2018-09-12T21:36:29.943Z,19.50
2018-09-12T21:37:29.634Z,19.45
2018-09-12T21:38:29.621Z,19.42
2018-09-12T21:39:29.612Z,19.43
2018-09-12T21:40:29.603Z,19.39
2018-09-12T21:41:29.764Z,19.40
2018-09-12T21:42:29.578Z,19.45
2018-09-12T21:43:29.567Z,19.40
2018-09-12T21:44:29.560Z,19.45
2018-09-12T21:45:29.546Z,19.16
2018-09-12T21:46:29.598Z,19.12
2018-09-12T21:47:29.527Z,19.15
2018-09-12T21:48:29.514Z,19.25
2018-09-12T21:49:29.506Z,19.15
2018-09-12T21:50:29.492Z,19.12
2018-09-12T21:51:29.736Z,19.15
2018-09-12T21:52:29.474Z,19.16
2018-09-12T21:53:29.460Z,19.28
2018-09-12T21:54:29.449Z,19.31
2018-09-12T21:55:29.439Z,19.23
2018-09-12T21:56:29.566Z,19.21
2018-09-12T21:57:29.419Z,19.24
2018-09-12T21:58:29.405Z,19.21
2018-09-12T21:59:29.394Z,19.15
2018-09-12T22:00:29.383Z,19.16
2018-09-12T22:01:29.704Z,19.21
2018-09-12T22:02:29.364Z,19.20
2018-09-12T22:03:29.351Z,19.16
2018-09-12T22:04:29.340Z,19.13
2018-09-12T22:05:29.333Z,19.10
2018-09-12T22:06:30.129Z,19.16
2018-09-12T22:07:29.322Z,19.20
2018-09-12T22:08:29.295Z,19.24
2018-09-12T22:09:29.286Z,19.23
2018-09-12T22:10:29.275Z,19.32
2018-09-12T22:11:29.368Z,19.35
2018-09-12T22:12:29.254Z,19.42
2018-09-12T22:13:29.244Z,19.40
2018-09-12T22:14:29.231Z,19.34
2018-09-12T22:15:29.220Z,19.28
2018-09-12T22:16:29.506Z,19.16
2018-09-12T22:17:29.203Z,19.12
2018-09-12T22:18:29.189Z,19.16
2018-09-12T22:19:29.175Z,19.12
2018-09-12T22:20:29.166Z,19.09
2018-09-12T22:21:29.340Z,19.05
2018-09-12T22:22:29.145Z,19.09
2018-09-12T22:23:29.139Z,19.05
2018-09-12T22:24:29.323Z,18.94
2018-09-12T22:25:29.112Z,18.76
2018-09-12T22:26:29.172Z,18.84
2018-09-12T22:27:29.090Z,18.83
2018-09-12T22:28:29.080Z,18.87
2018-09-12T22:29:29.066Z,18.91
2018-09-12T22:30:29.056Z,18.84
2018-09-12T22:31:29.316Z,18.87
2018-09-12T22:32:29.035Z,18.76
2018-09-12T22:33:29.025Z,18.78
2018-09-12T22:34:29.017Z,18.76
2018-09-12T22:35:29.002Z,18.74
2018-09-12T22:36:29.136Z,18.71
2018-09-12T22:37:28.983Z,18.59
2018-09-12T22:38:28.972Z,18.56
2018-09-12T22:39:28.965Z,18.64
2018-09-12T22:40:28.954Z,18.59
2018-09-12T22:41:30.198Z,18.71
2018-09-12T22:42:28.928Z,18.59
2018-09-12T22:43:28.921Z,18.62
2018-09-12T22:44:28.912Z,18.65
2018-09-12T22:45:28.898Z,18.66
2018-09-12T22:46:29.110Z,18.72
2018-09-12T22:47:28.877Z,18.66
2018-09-12T22:48:28.865Z,18.68
2018-09-12T22:49:28.855Z,18.66
2018-09-12T22:50:28.846Z,18.60
2018-09-12T22:51:28.945Z,18.66
2018-09-12T22:52:28.821Z,18.56
2018-09-12T22:53:28.811Z,18.54
2018-09-12T22:54:28.801Z,18.68
2018-09-12T22:55:28.792Z,18.60
2018-09-12T22:56:29.074Z,18.60
2018-09-12T22:57:28.777Z,18.62
2018-09-12T22:58:28.758Z,18.66
2018-09-12T22:59:28.752Z,18.64
2018-09-12T23:00:28.739Z,18.78
2018-09-12T23:01:28.907Z,18.66
2018-09-12T23:02:28.716Z,18.53
2018-09-12T23:03:28.712Z,18.60
2018-09-12T23:04:28.701Z,18.60
2018-09-12T23:05:28.684Z,18.54
2018-09-12T23:06:28.744Z,18.64
2018-09-12T23:07:28.664Z,18.68
2018-09-12T23:08:28.653Z,18.74
2018-09-12T23:09:28.653Z,18.68
2018-09-12T23:10:28.640Z,18.79
2018-09-12T23:11:28.881Z,18.74
2018-09-12T23:12:28.611Z,18.71
2018-09-12T23:13:28.600Z,18.72
2018-09-12T23:14:28.590Z,18.75
2018-09-12T23:15:28.587Z,18.76
2018-09-12T23:16:28.711Z,18.86
2018-09-12T23:17:28.561Z,18.91
2018-09-12T23:18:28.548Z,18.93
2018-09-12T23:19:28.537Z,18.91
2018-09-12T23:20:28.529Z,19.01
2018-09-12T23:21:28.852Z,19.01
2018-09-12T23:22:28.508Z,19.06
2018-09-12T23:23:28.495Z,19.02
2018-09-12T23:24:28.485Z,19.02
2018-09-12T23:25:28.474Z,19.12
2018-09-12T23:26:28.679Z,19.06
2018-09-12T23:27:28.452Z,19.12
2018-09-12T23:28:28.451Z,19.09
2018-09-12T23:29:28.435Z,18.89
2018-09-12T23:30:28.426Z,18.93
2018-09-12T23:31:28.509Z,19.06
2018-09-12T23:32:28.402Z,19.02
2018-09-12T23:33:28.392Z,18.96
2018-09-12T23:34:28.379Z,19.02
2018-09-12T23:35:28.369Z,18.90
2018-09-12T23:36:28.662Z,18.93
2018-09-12T23:37:28.345Z,18.87
2018-09-12T23:38:28.338Z,18.82
2018-09-12T23:39:28.327Z,18.97
2018-09-12T23:40:28.315Z,19.05
2018-09-12T23:41:28.478Z,19.10
2018-09-12T23:42:28.293Z,19.09
2018-09-12T23:43:28.281Z,19.06
2018-09-12T23:44:28.272Z,18.96
2018-09-12T23:45:28.262Z,18.91
2018-09-12T23:46:28.308Z,18.82
2018-09-12T23:47:28.239Z,18.76
2018-09-12T23:48:28.227Z,18.75
2018-09-12T23:49:28.225Z,18.56
2018-09-12T23:50:28.207Z,18.53
2018-09-12T23:51:28.196Z,18.46
2018-09-12T23:52:28.354Z,18.38
2018-09-12T23:53:28.177Z,18.35
2018-09-12T23:54:28.166Z,18.34
2018-09-12T23:55:28.154Z,17.94
2018-09-12T23:56:28.144Z,17.81
2018-09-12T23:57:28.185Z,17.66
2018-09-12T23:58:28.127Z,17.58
2018-09-12T23:59:28.110Z,17.54
